Davie, FL (33355)

5:27 AM EDT on August 30, 2016 (GMT -0400)
Auboretum | | Change Station

Elev 23 ft 26.11 °N, 80.32 °W | Updated 21 seconds ago

Light Rain
Light Rain
76.3 °F
Feels Like 77 °F
N
0.0
Wind Variable Wind from South

Today
High -- | Low -- °F
--% Chance of Precip.
Yesterday
High -- | Low -- °F
Precip. -- in
Pressure 29.88 in
Visibility 9.0 miles
Clouds Few 1900 ft
Scattered Clouds 5000 ft
Overcast 9000 ft
Heat Index 77 °F
Dew Point 73 °F
Humidity 90%
Rainfall 0.05 in
Snow Depth Not available.
7:00 AM 7:42 PM
Waning Crescent, 4% visible
METAR KFLL 300853Z 00000KT 9SM -RA FEW019 SCT050 OVC090 25/24 A2988 RMK AO2 RAB04E29B52 SLP118 P0004 60011 T02500244 55002
Pressure 29.88 in
Visibility 9.0 miles
Clouds Few 1900 ft
Scattered Clouds 5000 ft
Overcast 9000 ft
Heat Index 77 °F
Dew Point 73 °F
Humidity 90%
Rainfall 0.05 in
Snow Depth Not available.
7:00 AM 7:42 PM
Waning Crescent, 4% visible
METAR KFLL 300853Z 00000KT 9SM -RA FEW019 SCT050 OVC090 25/24 A2988 RMK AO2 RAB04E29B52 SLP118 P0004 60011 T02500244 55002

10-Day Weather Forecast

Almanac

Astronomy

Aug. 30, 2016 Rise Set
Actual Time
Civil Twilight
Nautical Twilight
Astronomical Twilight
Moon
Length of Visible Light
Length of Day
Tomorrow will be .
, % of the Moon is Illuminated

Today's Extremes

State Highs State Lows

Community

WunderPhotos

Upload Photos

1,935,795 photos uploaded!

WunderBlog® & News

Nearby

Air Quality

  Air Quality AQ Index Pollutant
Not available.

Snow Depth

Station Depth Elevation

Earthquake Activity

City Distance Mag. Time & Date
Minimum magnitude displayed is 2.5.

Coastal Water Temperatures

Place Temperature

Stations

Nearby Weather Stations

Station Location Temp. Windchill Dew Point Humidity Wind Precip. Elev Updated Type
                   

Watches & Warnings

There are currently no watches in effect.